Time;durP1;ratioP1;P1;durP2;ratioP2;P2;SDS_P1;SDS_P2;PMS_P1;PMS_P2;Temp;Humidity;BMP_temperature;BMP_pressure;BME280_temperature;BME280_humidity;BME280_pressure;Samples;Min_cycle;Max_cycle;Signal;HPM_P1;HPM_P2
2024/03/27 00:00:39;;;;;;;10.20;5.13;;;;;;;-146.27;80.42;43870.97;5054993;28;20082;-74
2024/03/27 00:03:05;;;;;;;8.70;5.20;;;;;;;-146.27;80.59;43872.97;5093349;28;20516;-73
2024/03/27 00:05:31;;;;;;;8.90;4.63;;;;;;;-146.27;80.60;43849.09;5081848;28;20067;-73
2024/03/27 00:07:59;;;;;;;14.13;5.22;;;;;;;-146.27;80.45;43853.06;5089597;28;20024;-74
2024/03/27 00:10:25;;;;;;;8.60;4.70;;;;;;;-146.27;80.57;43825.22;5090122;28;20028;-74
2024/03/27 00:12:50;;;;;;;10.77;5.60;;;;;;;-146.27;81.10;43825.22;5099304;28;20023;-73
2024/03/27 00:15:16;;;;;;;8.82;5.03;;;;;;;-146.27;81.09;43827.22;5087144;28;20088;-73
2024/03/27 00:17:41;;;;;;;9.27;5.20;;;;;;;-146.27;81.52;43783.44;5087394;28;20020;-74
2024/03/27 00:20:08;;;;;;;11.70;4.80;;;;;;;-146.27;81.95;43773.50;5077852;28;20031;-74
2024/03/27 00:22:33;;;;;;;9.50;4.78;;;;;;;-146.27;81.99;43757.59;5094572;28;20042;-74
2024/03/27 00:24:59;;;;;;;9.32;4.63;;;;;;;-146.27;82.00;43745.66;5091386;28;20024;-75
2024/03/27 00:27:24;;;;;;;10.48;4.18;;;;;;;-146.27;82.28;43761.56;5101127;28;20031;-74
2024/03/27 00:29:50;;;;;;;8.35;4.00;;;;;;;-146.27;82.54;43733.72;5092126;28;20154;-74
2024/03/27 00:32:16;;;;;;;8.38;3.63;;;;;;;-146.27;83.05;43670.06;5091909;28;20043;-73
2024/03/27 00:34:41;;;;;;;7.13;3.22;;;;;;;-146.27;82.89;43666.06;5098356;28;20047;-74
2024/03/27 00:37:07;;;;;;;7.72;3.10;;;;;;;-146.27;83.48;43654.13;5100038;28;20442;-74
2024/03/27 00:39:32;;;;;;;4.30;2.58;;;;;;;-146.27;83.47;43598.44;5089106;28;20089;-74
2024/03/27 00:41:59;;;;;;;4.45;2.50;;;;;;;-146.27;83.99;43604.41;5082458;28;20050;-74
2024/03/27 00:44:24;;;;;;;7.20;2.80;;;;;;;-146.27;84.06;43568.59;5074347;28;20393;-73
2024/03/27 00:46:50;;;;;;;5.57;2.47;;;;;;;-146.27;84.31;43522.84;5110729;28;20051;-74
2024/03/27 00:49:16;;;;;;;6.55;2.80;;;;;;;-146.27;83.71;43514.88;5082085;28;20033;-74
2024/03/27 00:51:42;;;;;;;3.55;2.28;;;;;;;-146.27;84.13;43506.94;5070236;28;20056;-74
2024/03/27 00:54:07;;;;;;;7.13;2.50;;;;;;;-146.27;84.72;43483.06;5073716;28;20484;-74
2024/03/27 00:56:33;;;;;;;5.70;2.85;;;;;;;-146.27;84.62;43435.31;5090518;28;20667;-73
2024/03/27 00:58:58;;;;;;;4.93;2.50;;;;;;;-146.27;84.52;43441.28;5079012;28;20675;-74
2024/03/27 01:01:24;;;;;;;5.10;2.30;;;;;;;-146.27;84.50;43403.50;5092948;28;20027;-75
2024/03/27 01:03:49;;;;;;;5.05;2.13;;;;;;;-146.27;84.60;43407.47;5091080;28;20089;-74
2024/03/27 01:06:14;;;;;;;8.95;1.90;;;;;;;-146.27;84.63;43383.59;5093697;28;20034;-74
2024/03/27 01:08:40;;;;;;;5.30;2.08;;;;;;;-146.27;84.58;43371.66;5097203;28;20054;-74
2024/03/27 01:11:05;;;;;;;5.97;2.45;;;;;;;-146.27;84.42;43371.66;5114457;28;20023;-74
2024/03/27 01:13:30;;;;;;;4.60;2.20;;;;;;;-146.27;84.69;43367.69;5095272;28;20112;-74
2024/03/27 01:15:56;;;;;;;7.47;2.10;;;;;;;-146.27;84.53;43349.78;5073701;28;20021;-74
2024/03/27 01:18:21;;;;;;;4.10;2.38;;;;;;;-146.27;84.78;43347.78;5089305;28;20388;-74
2024/03/27 01:20:47;;;;;;;9.57;2.13;;;;;;;-146.27;84.83;43319.94;5086965;28;20020;-74
2024/03/27 01:23:12;;;;;;;6.40;2.22;;;;;;;-146.27;84.91;43343.81;5096705;28;20020;-74
2024/03/27 01:25:39;;;;;;;9.43;1.95;;;;;;;-146.27;84.94;43343.81;5093495;28;20123;-74
2024/03/27 01:28:05;;;;;;;5.10;2.00;;;;;;;-146.27;84.93;43308.00;5089200;28;20021;-74
2024/03/27 01:30:30;;;;;;;7.30;2.35;;;;;;;-146.27;84.58;43317.94;5094319;28;20027;-74
2024/03/27 01:32:57;;;;;;;8.82;2.40;;;;;;;-146.27;84.80;43315.97;5097733;28;20074;-74
2024/03/27 01:35:25;;;;;;;4.07;2.28;;;;;;;-146.27;84.87;43339.84;5101169;28;20048;-74
2024/03/27 01:37:50;;;;;;;7.20;2.20;;;;;;;-146.27;84.87;43286.13;5091735;28;20063;-74
2024/03/27 01:40:15;;;;;;;4.22;1.98;;;;;;;-146.27;84.77;43304.03;5088117;28;20052;-74
2024/03/27 01:42:41;;;;;;;2.85;1.85;;;;;;;-146.27;84.42;43264.25;5094208;28;20024;-74
2024/03/27 01:45:12;;;;;;;4.05;2.08;;;;;;;-146.27;84.29;43272.19;5093739;28;20024;-75
2024/03/27 01:47:39;;;;;;;7.97;2.00;;;;;;;-146.27;84.10;43288.13;5092588;28;20037;-74
2024/03/27 01:50:06;;;;;;;6.13;2.20;;;;;;;-146.27;83.88;43274.19;5092275;28;20531;-74
2024/03/27 01:52:32;;;;;;;5.50;2.10;;;;;;;-146.27;83.82;43256.28;5092339;28;20038;-73
2024/03/27 01:54:58;;;;;;;5.32;2.75;;;;;;;-146.27;84.03;43266.22;5092129;28;20521;-73
2024/03/27 01:57:24;;;;;;;3.78;2.03;;;;;;;-146.27;83.71;43264.25;5092786;28;20103;-73
2024/03/27 01:59:49;;;;;;;7.28;1.80;;;;;;;-146.27;83.59;43298.06;5092804;28;20562;-73
2024/03/27 02:02:15;;;;;;;7.38;1.98;;;;;;;-146.27;83.39;43294.09;5102764;28;20027;-73
2024/03/27 02:04:40;;;;;;;5.22;2.10;;;;;;;-146.27;83.71;43329.88;5088239;28;20027;-73
2024/03/27 02:07:06;;;;;;;6.10;2.22;;;;;;;-146.27;83.75;43343.81;5083960;28;20028;-73
2024/03/27 02:09:32;;;;;;;9.85;2.20;;;;;;;-146.27;83.61;43341.81;5087052;28;20114;-73
2024/03/27 02:11:57;;;;;;;5.53;2.22;;;;;;;-146.27;83.54;43300.06;5093471;28;20024;-74
2024/03/27 02:14:23;;;;;;;8.88;2.20;;;;;;;-146.27;83.81;43327.91;5097816;28;20016;-74
2024/03/27 02:16:48;;;;;;;4.10;1.90;;;;;;;-146.27;83.81;43306.00;5092291;28;20077;-74
2024/03/27 02:19:13;;;;;;;5.00;2.08;;;;;;;-146.27;83.62;43333.88;5086476;28;20047;-74
2024/03/27 02:21:39;;;;;;;5.57;1.92;;;;;;;-146.27;83.50;43333.88;5087626;28;20067;-74
2024/03/27 02:24:10;;;;;;;4.22;2.10;;;;;;;-146.27;83.59;43327.91;5090827;28;20380;-74
2024/03/27 02:26:37;;;;;;;4.40;2.03;;;;;;;-146.27;83.60;43315.97;5099492;28;20135;-75
2024/03/27 02:29:03;;;;;;;6.57;1.65;;;;;;;-146.27;83.27;43308.00;5102234;28;20059;-74
2024/03/27 02:31:29;;;;;;;5.30;2.28;;;;;;;-146.27;83.53;43337.84;5100532;28;20084;-74
2024/03/27 02:33:55;;;;;;;7.53;1.85;;;;;;;-146.27;83.28;43315.97;5098907;28;20491;-74
2024/03/27 02:36:21;;;;;;;5.32;2.20;;;;;;;-146.27;83.06;43304.03;5092455;28;20026;-74
2024/03/27 02:38:48;;;;;;;3.67;1.83;;;;;;;-146.27;83.25;43319.94;5089003;28;20036;-74
2024/03/27 02:41:13;;;;;;;4.18;1.50;;;;;;;-146.27;83.12;43335.84;5077416;28;20024;-74
2024/03/27 02:43:40;;;;;;;6.85;2.33;;;;;;;-146.27;82.97;43304.03;5100135;28;20027;-75
2024/03/27 02:46:05;;;;;;;6.05;1.70;;;;;;;-146.27;82.49;43329.88;5086300;28;20106;-74
2024/03/27 02:48:31;;;;;;;2.42;1.58;;;;;;;-146.27;82.51;43357.72;5095024;28;20032;-74
2024/03/27 02:50:57;;;;;;;3.78;1.40;;;;;;;-146.27;82.08;43345.81;5112228;28;20076;-74
2024/03/27 02:53:22;;;;;;;3.47;1.52;;;;;;;-146.27;82.11;43407.47;5103947;28;20512;-74
2024/03/27 02:55:52;;;;;;;5.57;1.95;;;;;;;-146.27;81.35;43349.78;5092688;28;20443;-74
2024/03/27 02:58:17;;;;;;;3.22;1.58;;;;;;;-146.27;81.02;43375.63;5101073;28;20050;-74
2024/03/27 03:00:44;;;;;;;4.32;1.35;;;;;;;-146.27;80.53;43335.84;5096053;28;20063;-73
2024/03/27 03:03:11;;;;;;;2.63;1.40;;;;;;;-146.27;80.03;43315.97;5091921;28;20518;-73
2024/03/27 03:05:37;;;;;;;4.78;1.75;;;;;;;-146.27;81.10;43427.34;5091906;28;20443;-73
2024/03/27 03:08:04;;;;;;;6.00;1.70;;;;;;;-146.27;80.89;43415.41;5091786;28;20020;-75
2024/03/27 03:10:30;;;;;;;2.35;1.63;;;;;;;-146.27;80.17;43375.63;5091123;28;20078;-73
2024/03/27 03:12:55;;;;;;;4.78;1.92;;;;;;;-146.27;80.20;43351.75;5091768;28;20043;-73
2024/03/27 03:15:20;;;;;;;5.82;1.40;;;;;;;-146.27;80.37;43375.63;5103521;28;20035;-73
2024/03/27 03:17:48;;;;;;;5.22;1.67;;;;;;;-146.27;79.64;43363.69;5091305;28;20028;-73
2024/03/27 03:20:13;;;;;;;6.70;1.60;;;;;;;-146.27;79.93;43363.69;5090291;28;20059;-73
2024/03/27 03:22:39;;;;;;;2.75;1.33;;;;;;;-146.27;79.58;43363.69;5073347;28;20050;-75
2024/03/27 03:25:05;;;;;;;6.35;1.70;;;;;;;-146.27;79.53;43395.53;5091066;28;20024;-74
2024/03/27 03:27:31;;;;;;;4.22;1.40;;;;;;;-146.27;79.22;43361.72;5090375;28;20067;-74
2024/03/27 03:29:57;;;;;;;3.38;1.10;;;;;;;-146.27;78.95;43401.50;5091264;28;20031;-74
2024/03/27 03:32:22;;;;;;;3.33;1.20;;;;;;;-146.27;79.07;43415.41;5073076;28;20020;-74
2024/03/27 03:34:48;;;;;;;3.13;1.58;;;;;;;-146.27;79.05;43419.41;5091356;28;20030;-73
2024/03/27 03:37:13;;;;;;;5.63;1.70;;;;;;;-146.27;79.77;43451.22;5091323;28;20024;-73
2024/03/27 03:39:38;;;;;;;3.40;2.00;;;;;;;-146.27;79.79;43415.41;5090796;28;20476;-74
2024/03/27 03:42:04;;;;;;;2.45;1.90;;;;;;;-146.27;79.29;43409.44;5090778;28;20041;-74
2024/03/27 03:44:29;;;;;;;3.90;1.83;;;;;;;-146.27;80.18;43449.25;5085346;28;20033;-74
2024/03/27 03:46:55;;;;;;;4.90;3.17;;;;;;;-146.27;80.29;43570.59;5080179;28;20016;-73
2024/03/27 03:49:20;;;;;;;5.45;3.75;;;;;;;-146.27;80.46;43614.34;5082489;28;20029;-73
2024/03/27 03:51:45;;;;;;;4.30;3.50;;;;;;;-146.27;79.70;43674.03;5080746;28;20467;-74
2024/03/27 03:54:11;;;;;;;7.82;4.55;;;;;;;-146.27;80.91;43709.84;5070315;28;20024;-73
2024/03/27 03:56:36;;;;;;;9.95;5.38;;;;;;;-146.27;80.35;43689.94;5070774;28;20040;-73
2024/03/27 03:59:02;;;;;;;10.57;5.88;;;;;;;-146.27;81.68;43845.13;5090335;28;20948;-73
2024/03/27 04:01:27;;;;;;;8.80;4.43;;;;;;;-146.27;82.28;43817.25;5092223;28;20803;-73
2024/03/27 04:03:53;;;;;;;5.20;3.10;;;;;;;-146.27;82.02;43837.16;5095632;28;20358;-74
2024/03/27 04:06:18;;;;;;;4.32;2.42;;;;;;;-146.27;82.55;43861.03;5095078;28;20391;-74
2024/03/27 04:08:44;;;;;;;6.80;2.70;;;;;;;-146.27;83.72;43841.13;5092300;28;20029;-74
2024/03/27 04:11:09;;;;;;;4.68;1.80;;;;;;;-146.27;84.35;43872.97;5090763;28;20056;-75
2024/03/27 04:13:35;;;;;;;6.55;1.92;;;;;;;-146.27;84.57;43916.75;5090066;28;20091;-73
2024/03/27 04:16:01;;;;;;;6.13;1.95;;;;;;;-146.27;84.45;43900.81;5089959;28;20024;-73
2024/03/27 04:18:27;;;;;;;3.13;1.50;;;;;;;-146.27;84.66;43928.69;5083903;28;20029;-73
2024/03/27 04:20:53;;;;;;;8.10;1.60;;;;;;;-146.27;85.62;43934.66;5072349;28;20370;-74
2024/03/27 04:23:18;;;;;;;9.48;1.52;;;;;;;-146.27;84.21;43857.06;5091761;28;20019;-75
2024/03/27 04:25:50;;;;;;;10.35;2.28;;;;;;;-146.27;83.87;43878.94;5099281;28;20127;-74
2024/03/27 04:28:18;;;;;;;11.38;1.83;;;;;;;-146.27;84.72;43910.78;5092912;28;20023;-74
2024/03/27 04:30:43;;;;;;;13.18;1.80;;;;;;;-146.27;85.10;43976.41;5082043;28;20542;-74
2024/03/27 04:33:10;;;;;;;11.32;2.10;;;;;;;-146.27;84.78;43992.34;5087279;28;20024;-71
2024/03/27 04:35:36;;;;;;;9.13;2.28;;;;;;;-146.27;84.88;43960.50;5089316;28;20028;-72
2024/03/27 04:38:02;;;;;;;13.80;2.05;;;;;;;-146.27;84.01;43906.78;5067953;28;20025;-72
2024/03/27 04:40:27;;;;;;;8.57;2.35;;;;;;;-146.27;83.58;43928.69;5088913;28;20035;-72
2024/03/27 04:42:53;;;;;;;4.00;1.48;;;;;;;-146.27;83.03;43938.63;5070749;28;20035;-74
2024/03/27 04:45:18;;;;;;;4.00;1.58;;;;;;;-146.27;83.16;43938.63;5070350;28;20028;-74
2024/03/27 04:47:44;;;;;;;8.10;2.08;;;;;;;-146.27;83.25;43960.50;5070051;28;20032;-74
2024/03/27 04:50:10;;;;;;;13.25;1.90;;;;;;;-146.27;84.32;44044.06;5091025;28;20032;-74
2024/03/27 04:52:35;;;;;;;10.07;2.25;;;;;;;-146.27;84.21;43956.53;5089587;28;20035;-74
2024/03/27 04:55:03;;;;;;;10.48;2.03;;;;;;;-146.27;84.19;44052.03;5089408;28;20057;-74
2024/03/27 04:57:29;;;;;;;10.25;3.08;;;;;;;-146.27;84.06;43996.31;5078313;28;20430;-74
2024/03/27 04:59:54;;;;;;;12.77;2.15;;;;;;;-146.27;83.69;44012.22;5083553;28;20031;-74
2024/03/27 05:02:20;;;;;;;8.32;2.33;;;;;;;-146.27;84.04;44048.03;5090051;28;20044;-74
2024/03/27 05:04:46;;;;;;;6.95;2.50;;;;;;;-146.27;83.17;43996.31;5089345;28;20506;-73
2024/03/27 05:07:12;;;;;;;9.30;2.30;;;;;;;-146.27;82.92;44036.09;5090140;28;20035;-74
2024/03/27 05:09:37;;;;;;;10.63;2.38;;;;;;;-146.27;82.28;43984.38;5088731;28;20411;-73
2024/03/27 05:12:03;;;;;;;5.47;1.83;;;;;;;-146.27;82.30;44121.66;5090344;28;20078;-73
2024/03/27 05:14:29;;;;;;;12.85;2.15;;;;;;;-146.27;82.12;44054.00;5089778;28;20012;-75
2024/03/27 05:16:55;;;;;;;8.38;1.27;;;;;;;-146.27;82.47;44069.94;5090115;28;20043;-74
2024/03/27 05:19:20;;;;;;;11.18;2.00;;;;;;;-146.27;82.23;44123.66;5090392;28;20050;-74
2024/03/27 05:21:45;;;;;;;5.20;1.73;;;;;;;-146.27;81.19;44077.88;5089822;28;20035;-74
2024/03/27 05:24:11;;;;;;;8.00;1.90;;;;;;;-146.27;80.59;44081.88;5082277;28;20466;-74
2024/03/27 05:26:37;;;;;;;9.20;2.15;;;;;;;-146.27;80.57;44141.56;5090734;28;20053;-73
2024/03/27 05:29:04;;;;;;;7.78;1.23;;;;;;;-146.27;80.75;44227.09;5073150;28;20066;-74
2024/03/27 05:31:30;;;;;;;6.68;1.33;;;;;;;-146.27;80.72;44215.16;5096194;28;20443;-73
2024/03/27 05:33:56;;;;;;;5.63;1.40;;;;;;;-146.27;80.60;44219.16;5088906;28;20092;-73
2024/03/27 05:36:22;;;;;;;4.82;1.00;;;;;;;-146.27;79.35;44143.53;5070231;28;20036;-74
2024/03/27 05:38:47;;;;;;;6.38;1.52;;;;;;;-146.27;78.61;44161.44;5096981;28;20057;-73
2024/03/27 05:41:13;;;;;;;9.45;1.20;;;;;;;-146.27;78.74;44153.50;5094721;28;20107;-74
2024/03/27 05:43:38;;;;;;;7.93;1.17;;;;;;;-146.27;79.81;44278.84;5099924;28;20032;-74
2024/03/27 05:46:04;;;;;;;9.77;1.27;;;;;;;-146.27;79.59;44250.97;5093625;28;20083;-74
2024/03/27 05:48:30;;;;;;;10.70;1.70;;;;;;;-146.27;79.39;44247.00;5094198;28;20122;-74
2024/03/27 05:50:56;;;;;;;7.05;1.25;;;;;;;-146.27;79.12;44197.25;5093856;28;20073;-74
2024/03/27 05:53:22;;;;;;;4.97;1.20;;;;;;;-146.27;79.34;44254.97;5103270;28;20031;-74
2024/03/27 05:55:55;;;;;;;15.38;1.98;;;;;;;-146.27;80.16;44324.59;5097950;28;20026;-74
2024/03/27 05:58:20;;;;;;;3.50;1.08;;;;;;;-146.27;80.43;44354.44;5087805;28;20020;-74
2024/03/27 06:00:46;;;;;;;6.20;1.40;;;;;;;-146.27;80.62;44306.69;5089620;28;20078;-73
2024/03/27 06:03:11;;;;;;;8.98;1.15;;;;;;;-146.27;80.39;44324.59;5094750;28;20032;-74
2024/03/27 06:05:38;;;;;;;5.43;1.15;;;;;;;-146.27;80.47;44322.63;5083903;28;20020;-73
2024/03/27 06:08:06;;;;;;;3.15;1.00;;;;;;;-146.27;79.42;44298.75;5090854;28;20021;-73
2024/03/27 06:10:31;;;;;;;6.00;1.70;;;;;;;-146.27;78.82;44324.59;5096631;28;20051;-73
2024/03/27 06:12:57;;;;;;;4.70;1.05;;;;;;;-146.27;78.98;44334.56;5091082;28;20085;-74
2024/03/27 06:15:25;;;;;;;8.73;1.10;;;;;;;-146.27;78.70;44330.56;5090148;28;20024;-75
2024/03/27 06:17:51;;;;;;;9.27;1.25;;;;;;;-146.27;79.67;44442.00;5087947;28;20020;-75
2024/03/27 06:20:17;;;;;;;5.63;1.50;;;;;;;-146.27;79.64;44416.13;5084116;28;20123;-75
2024/03/27 06:22:43;;;;;;;6.05;1.27;;;;;;;-146.27;79.83;44469.84;5078138;28;20170;-74
2024/03/27 06:25:09;;;;;;;7.35;1.20;;;;;;;-146.27;79.21;44519.59;5089384;28;20062;-74
2024/03/27 06:27:34;;;;;;;6.40;1.75;;;;;;;-146.27;78.90;44501.69;5091886;28;20019;-74
2024/03/27 06:30:01;;;;;;;7.25;1.67;;;;;;;-146.27;78.47;44529.53;5092299;28;20136;-74
2024/03/27 06:32:26;;;;;;;4.35;1.75;;;;;;;-146.27;78.90;44567.34;5093022;28;20085;-74
2024/03/27 06:34:51;;;;;;;3.92;1.20;;;;;;;-146.27;78.47;44561.38;5101201;28;20024;-74
2024/03/27 06:37:18;;;;;;;4.35;2.53;;;;;;;-146.27;78.80;44633.00;5070872;28;20066;-73
2024/03/27 06:39:43;;;;;;;8.48;2.13;;;;;;;-146.27;79.16;44652.91;5098883;28;20027;-76
2024/03/27 06:42:09;;;;;;;12.80;3.85;;;;;;;-146.27;79.16;44650.94;5096054;28;20717;-74
2024/03/27 06:44:35;;;;;;;11.27;4.80;;;;;;;-146.27;79.12;44617.09;5091873;28;20077;-74
2024/03/27 06:47:00;;;;;;;10.65;5.10;;;;;;;-146.27;78.58;44615.09;5093616;28;20149;-74
2024/03/27 06:49:32;;;;;;;11.70;6.13;;;;;;;-146.27;79.16;44646.94;5090607;28;20484;-74
2024/03/27 06:51:59;;;;;;;12.38;4.90;;;;;;;-146.27;79.91;44666.84;5092742;28;20540;-75
2024/03/27 06:54:24;;;;;;;13.68;5.20;;;;;;;-146.27;79.91;44696.69;5096794;28;20016;-74
2024/03/27 06:56:49;;;;;;;15.00;5.68;;;;;;;-146.27;79.86;44708.63;5098108;28;20437;-75
2024/03/27 06:59:15;;;;;;;9.15;4.30;;;;;;;-146.27;79.80;44812.09;5091722;28;20056;-75
2024/03/27 07:01:41;;;;;;;7.78;3.83;;;;;;;-146.27;79.30;44740.47;5090016;28;20020;-75
2024/03/27 07:04:06;;;;;;;8.23;3.90;;;;;;;-146.27;78.71;44740.47;5098638;28;20076;-74
2024/03/27 07:06:32;;;;;;;4.70;3.40;;;;;;;-146.27;79.20;44835.97;5098230;28;20023;-74
2024/03/27 07:08:57;;;;;;;8.35;3.53;;;;;;;-146.27;79.33;44812.09;5088721;28;20503;-74
2024/03/27 07:11:22;;;;;;;8.77;3.78;;;;;;;-146.27;80.34;44899.66;5092779;28;20027;-74
2024/03/27 07:13:48;;;;;;;4.80;3.17;;;;;;;-146.27;79.09;44800.16;5093726;28;20044;-74
2024/03/27 07:16:13;;;;;;;7.80;3.55;;;;;;;-146.27;79.39;44851.91;5087775;28;20345;-74
2024/03/27 07:18:39;;;;;;;7.82;3.15;;;;;;;-146.27;78.47;44812.09;5082372;28;20054;-74
2024/03/27 07:21:05;;;;;;;10.55;3.30;;;;;;;-146.27;78.33;44832.00;5086553;28;20616;-73
2024/03/27 07:23:31;;;;;;;4.93;2.75;;;;;;;-146.27;77.87;44792.22;5090143;28;20028;-73
2024/03/27 07:25:56;;;;;;;5.60;2.92;;;;;;;-146.27;77.91;44796.19;5089755;28;20054;-74
2024/03/27 07:28:22;;;;;;;5.88;2.80;;;;;;;-146.27;78.44;44883.75;5082772;28;20016;-73
2024/03/27 07:30:49;;;;;;;2.80;2.17;;;;;;;-146.27;77.86;44847.91;5085302;28;20483;-74
2024/03/27 07:33:15;;;;;;;5.57;3.08;;;;;;;-146.27;77.50;44897.66;5081853;28;20581;-73
2024/03/27 07:35:41;;;;;;;4.55;2.55;;;;;;;-146.27;77.77;44903.66;5091502;28;20068;-74
2024/03/27 07:38:06;;;;;;;8.32;2.90;;;;;;;-146.27;76.91;44828.03;5098983;28;20023;-75
2024/03/27 07:40:32;;;;;;;3.88;2.47;;;;;;;-146.27;77.22;44875.78;5091017;28;20016;-75
2024/03/27 07:42:57;;;;;;;8.60;2.70;;;;;;;-146.27;78.03;44891.69;5089184;28;20019;-75
2024/03/27 07:45:23;;;;;;;10.75;2.70;;;;;;;-146.27;78.71;44895.69;5090683;28;20545;-74
2024/03/27 07:47:49;;;;;;;5.25;3.45;;;;;;;-146.27;79.05;44935.47;5089637;28;20439;-75
2024/03/27 07:50:15;;;;;;;6.78;3.38;;;;;;;-146.27;77.88;44911.59;5090846;28;20024;-75
2024/03/27 07:52:40;;;;;;;5.10;3.75;;;;;;;-146.27;78.09;44921.56;5093549;28;20491;-72
2024/03/27 07:55:07;;;;;;;4.97;3.42;;;;;;;-146.27;78.22;44899.66;5089174;28;20546;-73
2024/03/27 07:57:33;;;;;;;5.80;3.58;;;;;;;-146.27;77.80;44899.66;5090048;28;20480;-72
2024/03/27 07:59:59;;;;;;;10.32;4.70;;;;;;;-146.27;78.91;44967.31;5089616;28;20054;-73
2024/03/27 08:02:24;;;;;;;6.78;3.97;;;;;;;-146.27;78.40;44903.66;5091143;28;20032;-72
2024/03/27 08:04:50;;;;;;;8.77;3.80;;;;;;;-146.27;77.79;44885.72;5092212;28;20042;-72
2024/03/27 08:07:15;;;;;;;7.72;3.55;;;;;;;-146.27;77.19;44834.00;5089793;28;20468;-72
2024/03/27 08:09:40;;;;;;;6.55;3.25;;;;;;;-146.27;76.65;44901.66;5089152;28;20531;-73
2024/03/27 08:12:06;;;;;;;6.45;3.20;;;;;;;-146.27;76.88;44919.56;5090624;28;20019;-73
2024/03/27 08:14:32;;;;;;;9.98;2.97;;;;;;;-146.27;76.37;44897.66;5085888;28;20024;-74
2024/03/27 08:16:58;;;;;;;6.45;2.90;;;;;;;-146.27;76.68;44961.34;5083721;28;20392;-73
2024/03/27 08:19:23;;;;;;;6.75;3.53;;;;;;;-146.27;76.39;44893.69;5068020;28;20028;-73
2024/03/27 08:21:51;;;;;;;7.60;3.10;;;;;;;-146.27;76.42;44971.31;5085770;28;20028;-72
2024/03/27 08:24:16;;;;;;;4.53;3.25;;;;;;;-146.27;76.37;44971.31;5083787;28;20032;-72
2024/03/27 08:26:42;;;;;;;5.05;3.22;;;;;;;-146.27;76.38;44939.47;5086097;28;20042;-73
2024/03/27 08:29:07;;;;;;;7.28;3.92;;;;;;;-146.27;76.39;44899.66;5087306;28;20489;-72
2024/03/27 08:31:33;;;;;;;6.18;3.83;;;;;;;-146.27;76.00;44945.44;5088862;28;20511;-73
2024/03/27 08:33:58;;;;;;;6.20;3.50;;;;;;;-146.27;76.04;44947.41;5088450;28;20013;-73
2024/03/27 08:36:24;;;;;;;4.95;3.28;;;;;;;-146.27;75.74;44909.63;5090474;28;20020;-72
2024/03/27 08:38:49;;;;;;;7.75;4.03;;;;;;;-146.27;76.62;44963.34;5089680;28;20034;-72
2024/03/27 08:41:14;;;;;;;8.05;4.07;;;;;;;-146.27;75.48;44921.56;5089756;28;20028;-73
2024/03/27 08:43:40;;;;;;;6.95;4.88;;;;;;;-146.27;75.41;44993.19;5089927;28;20028;-72
2024/03/27 08:46:05;;;;;;;9.93;4.78;;;;;;;-146.27;75.32;44973.28;5070950;28;20077;-71
2024/03/27 08:48:31;;;;;;;11.02;5.95;;;;;;;-146.27;73.99;44953.38;5087540;28;20089;-72
2024/03/27 08:50:56;;;;;;;9.68;6.00;;;;;;;-146.27;73.89;45003.16;5089874;28;20479;-73
2024/03/27 08:53:22;;;;;;;11.35;5.88;;;;;;;-146.27;74.74;45019.06;5090828;28;20020;-74
2024/03/27 08:55:48;;;;;;;9.25;6.70;;;;;;;-146.27;73.76;44961.34;5089317;28;20024;-73
2024/03/27 08:58:13;;;;;;;12.35;6.60;;;;;;;-146.27;73.72;44947.41;5090182;28;20072;-73
2024/03/27 09:00:39;;;;;;;12.50;5.72;;;;;;;-146.27;73.39;44923.53;5091235;28;20032;-73
2024/03/27 09:03:06;;;;;;;6.28;4.82;;;;;;;-146.27;72.97;44911.59;5088425;28;20052;-74
2024/03/27 09:05:31;;;;;;;7.25;5.13;;;;;;;-146.27;72.72;44935.47;5089125;28;20556;-74
2024/03/27 09:07:57;;;;;;;6.90;5.05;;;;;;;-146.27;73.07;44967.31;5085939;28;20109;-74
2024/03/27 09:10:23;;;;;;;6.85;4.03;;;;;;;-146.27;72.49;44955.38;5069820;28;20025;-72
2024/03/27 09:12:49;;;;;;;5.95;3.50;;;;;;;-146.27;72.41;44987.22;5069987;28;20032;-74
2024/03/27 09:15:14;;;;;;;7.80;3.67;;;;;;;-146.27;71.25;44945.44;5100446;28;20034;-73
2024/03/27 09:17:40;;;;;;;5.72;3.45;;;;;;;-146.27;71.03;44915.59;5087460;28;20028;-74
2024/03/27 09:20:05;;;;;;;4.90;2.80;;;;;;;-146.27;70.84;45019.06;5114450;28;20059;-73
2024/03/27 09:22:34;;;;;;;4.60;2.60;;;;;;;-146.27;71.02;44971.31;5102219;28;20028;-72
2024/03/27 09:24:59;;;;;;;4.25;2.50;;;;;;;-146.27;70.50;45015.09;5093255;28;20036;-71
2024/03/27 09:27:25;;;;;;;4.43;2.70;;;;;;;-146.27;70.97;45078.75;5087055;28;20460;-72
2024/03/27 09:29:54;;;;;;;6.80;2.78;;;;;;;-146.27;71.82;45052.91;5070174;28;20024;-72
2024/03/27 09:32:21;;;;;;;7.03;2.35;;;;;;;-146.27;71.27;45033.00;5090857;28;20132;-73
2024/03/27 09:34:53;;;;;;;5.70;2.90;;;;;;;-146.27;71.50;45036.97;5093557;28;20023;-75
2024/03/27 09:37:18;;;;;;;2.80;2.15;;;;;;;-146.27;71.06;44997.16;5093503;28;20519;-74
2024/03/27 09:39:43;;;;;;;6.68;2.80;;;;;;;-146.27;70.36;45017.06;5092794;28;20095;-73
2024/03/27 09:42:11;;;;;;;5.40;2.53;;;;;;;-146.27;69.59;44955.38;5088048;28;20104;-73
2024/03/27 09:44:37;;;;;;;7.60;2.42;;;;;;;-146.27;69.56;44981.25;5089177;28;20013;-74
2024/03/27 09:47:05;;;;;;;5.93;2.63;;;;;;;-146.27;70.21;45080.75;5091060;28;20032;-73
2024/03/27 09:49:30;;;;;;;5.35;2.85;;;;;;;-146.27;69.32;45050.91;5074322;28;20036;-74
2024/03/27 09:51:59;;;;;;;7.45;3.30;;;;;;;-146.27;68.92;45094.69;5090733;28;20024;-73
2024/03/27 09:54:26;;;;;;;5.70;2.83;;;;;;;-146.27;67.89;45046.94;5070319;28;20110;-74
2024/03/27 09:56:56;;;;;;;5.60;2.90;;;;;;;-146.27;67.69;45029.00;5063847;28;20424;-74
2024/03/27 09:59:22;;;;;;;4.07;2.75;;;;;;;-146.27;66.67;45080.75;5054195;28;20032;-76
2024/03/27 10:02:01;;;;;;;5.47;3.00;;;;;;;-146.27;66.98;45027.03;5055179;28;20034;-76
2024/03/27 10:04:26;;;;;;;4.75;2.90;;;;;;;-146.27;65.86;45001.16;5072751;28;20025;-75
2024/03/27 10:06:53;;;;;;;5.30;2.80;;;;;;;-146.27;65.23;44955.38;5072067;28;20032;-75
2024/03/27 10:09:19;;;;;;;4.82;2.58;;;;;;;-146.27;65.37;45027.03;5072731;28;20111;-75
2024/03/27 10:11:45;;;;;;;5.95;2.80;;;;;;;-146.27;65.26;45106.63;5072618;28;20119;-75
2024/03/27 10:14:10;;;;;;;4.88;3.15;;;;;;;-146.27;66.56;45114.59;5072632;28;20031;-75
2024/03/27 10:16:36;;;;;;;8.10;2.90;;;;;;;-146.27;66.39;45046.94;5072576;28;20016;-75
2024/03/27 10:19:01;;;;;;;5.80;3.15;;;;;;;-146.27;66.94;45176.28;5072673;28;20500;-75
2024/03/27 10:21:28;;;;;;;6.97;3.25;;;;;;;-146.27;66.56;45124.53;5072736;28;20035;-75
2024/03/27 10:23:54;;;;;;;5.78;3.70;;;;;;;-146.27;66.26;45126.53;5054530;28;20120;-76
2024/03/27 10:26:19;;;;;;;10.63;3.17;;;;;;;-146.27;65.23;45027.03;5072609;28;20130;-75
2024/03/27 10:28:45;;;;;;;5.90;3.13;;;;;;;-146.27;65.87;45148.41;5072242;28;20464;-75
2024/03/27 10:31:10;;;;;;;11.35;4.18;;;;;;;-146.27;66.25;45150.41;5072354;28;20036;-74
2024/03/27 10:33:36;;;;;;;5.60;3.70;;;;;;;-146.27;65.65;45166.31;5084101;28;20077;-73
2024/03/27 10:36:04;;;;;;;5.85;3.72;;;;;;;-146.27;66.26;45136.47;5094542;28;20028;-75
2024/03/27 10:38:29;;;;;;;5.95;3.97;;;;;;;-146.27;66.14;45152.41;5085771;28;20417;-75
2024/03/27 10:41:03;;;;;;;4.95;3.30;;;;;;;-146.27;66.00;45182.25;5084482;28;20040;-75
2024/03/27 10:43:47;;;;;;;4.55;3.38;;;;;;;-146.27;66.26;45158.38;5087937;28;20062;-74
2024/03/27 10:46:14;;;;;;;;;;;;;;;-146.27;67.11;45190.22;5104409;28;20027;-74
2024/03/27 10:48:40;;;;;;;5.80;3.72;;;;;;;-146.27;66.95;45134.50;5096694;28;19908;-75
2024/03/27 10:51:07;;;;;;;7.80;3.80;;;;;;;-146.27;68.03;45082.75;5084013;28;20402;-75
2024/03/27 10:53:33;;;;;;;7.28;4.43;;;;;;;-146.27;68.80;45128.50;5085611;28;20051;-74
2024/03/27 10:55:59;;;;;;;5.80;4.15;;;;;;;-146.27;68.29;45084.72;5087314;28;20392;-73
2024/03/27 10:58:26;;;;;;;11.52;4.75;;;;;;;-146.27;68.78;45096.69;5090440;28;20036;-74
2024/03/27 11:00:53;;;;;;;5.75;4.20;;;;;;;-146.27;68.47;45102.66;5094521;28;20024;-74
2024/03/27 11:03:19;;;;;;;5.18;3.85;;;;;;;-146.27;67.31;44999.16;5094189;28;20062;-74
2024/03/27 11:05:47;;;;;;;7.30;4.88;;;;;;;-146.27;67.11;45034.97;5091495;28;20031;-75
2024/03/27 11:08:16;;;;;;;4.38;3.95;;;;;;;-146.27;66.90;45114.59;5090272;28;20028;-75
2024/03/27 11:10:43;;;;;;;7.22;4.90;;;;;;;-146.27;66.17;45120.56;5096483;28;20023;-75